Flagstaff, AZ (86011)

2:10 PM MST on August 21, 2014 (GMT -0700)
Switzer Canyon | Change Station
CLOSE
Current Station
Personal Weather Station
Location: Flagstaff, AZ
Elevation: 6932 ft
Nearby Weather Stations
Active Advisory: Flash Flood Warning

Elev 6932 ft 35.21 °N, 111.64 °W | Updated 6 seconds ago

Overcast
Overcast
61.3 °F
Feels Like 61.3 °F
N
0.9
Wind Variable Wind from WNW
Gusts 2.7 mph

Today
High -- | Low -- °F
--% Chance of Precip.
Yesterday
High -- | Low -- °F
Precip. -- in
5:50 AM 7:07 PM
Waning Crescent, 12% visible
Pressure 30.08 in
Visibility 10.0 miles
Clouds Overcast 7500 ft
Dew Point 50 °F
Humidity 66%
Rainfall 0.00 in
Snow Depth Not available.
UV 0.0 out of 12
Pollen 4.50 out of 12
Air Quality Not available.
Flu Activity Not available.
METAR KFLG 212057Z 00000KT 10SM -TSRA OVC075 15/11 A3029 RMK AO2 RAB01E23B30 TSB46 SLP185 TS OVHD MOV N P0001 60001 T01500106 57002

More Conditions Fewer Conditions

Pressure 30.08 in
Visibility 10.0 miles
Clouds Overcast 7500 ft
Dew Point 50 °F
Humidity 66%
Rainfall 0.00 in
Snow Depth Not available.
UV 0.0 out of 12
Pollen 4.50 out of 12
Air Quality Not available.
Flu Activity Not available.
METAR KFLG 212057Z 00000KT 10SM -TSRA OVC075 15/11 A3029 RMK AO2 RAB01E23B30 TSB46 SLP185 TS OVHD MOV N P0001 60001 T01500106 57002

More Conditions Fewer Conditions

10-Day Weather Forecast

Almanac

Astronomy

Aug. 21, 2014 Rise Set
Actual Time 5:50 AM MST 7:07 PM MST
Civil Twilight 5:24 AM MST 7:34 PM MST
Nautical Twilight 4:52 AM MST 8:05 PM MST
Astronomical Twilight 4:19 AM MST 8:38 PM MST
Moon 2:27 AM MST 4:35 PM MST
Length of Visible Light 14h 09m
Length of Day
13h 16m
Tomorrow will be 2m 1s shorter.
Waning Crescent, 12% of the Moon is Illuminated
Today
Waning Crescent
Aug 25
New
Sep 2
First Quarter
Sep 8
Full
Sep 15
Last Quarter

Today's Extremes

State Highs State Lows

Community

WunderPhotos

Upload Photos

1,746,019 photos uploaded!

WunderBlogs® & News

Nearby

Snow Depth

Station Depth Elevation
Workman Creek 1 in 6900 ft
Beaver Head 12 in 7990 ft

Earthquake Activity

City Distance Mag. Time & Date
No recent earthquake activity has been reported nearby.
Minimum magnitude displayed is 2.5.

Coastal Water Temperatures

Place Temperature
No Stations Reporting

Nearby Weather Stations